createdAt,value
2018-08-19T00:02:26.234Z,7.30
2018-08-19T00:05:08.500Z,6.30
2018-08-19T00:07:39.864Z,7.80
2018-08-19T00:10:09.777Z,6.50
2018-08-19T00:12:45.085Z,5.73
2018-08-19T00:15:15.459Z,8.43
2018-08-19T00:17:46.202Z,7.33
2018-08-19T00:20:16.128Z,6.90
2018-08-19T00:22:46.214Z,6.40
2018-08-19T00:25:26.686Z,13.90
2018-08-19T00:27:57.161Z,6.80
2018-08-19T00:30:26.868Z,7.60
2018-08-19T00:32:56.697Z,7.10
2018-08-19T00:35:27.560Z,8.33
2018-08-19T00:37:58.097Z,7.87
2018-08-19T00:40:28.144Z,6.47
2018-08-19T00:42:58.306Z,8.27
2018-08-19T00:45:28.704Z,6.17
2018-08-19T00:47:59.382Z,7.17
2018-08-19T00:50:29.188Z,6.30
2018-08-19T00:52:58.862Z,6.67
2018-08-19T00:55:32.061Z,6.90
2018-08-19T00:58:02.779Z,12.73
2018-08-19T01:00:32.429Z,6.90
2018-08-19T01:03:02.160Z,6.60
2018-08-19T01:05:32.110Z,6.80
2018-08-19T01:08:03.207Z,7.17
2018-08-19T01:10:33.093Z,7.67
2018-08-19T01:13:03.424Z,6.40
2018-08-19T01:15:33.211Z,6.37
2018-08-19T01:18:04.828Z,6.80
2018-08-19T01:20:34.715Z,7.53
2018-08-19T01:23:04.599Z,7.20
2018-08-19T01:25:34.426Z,6.53
2018-08-19T01:28:04.480Z,8.10
2018-08-19T01:30:34.250Z,10.13
2018-08-19T01:33:03.912Z,8.93
2018-08-19T01:40:33.269Z,6.93
2018-08-19T01:43:03.002Z,6.13
2018-08-19T01:45:32.813Z,12.53
2018-08-19T01:48:02.634Z,6.00
2018-08-19T01:50:32.412Z,7.97
2018-08-19T01:53:02.086Z,6.60
2018-08-19T01:55:32.449Z,9.40
2018-08-19T01:58:02.338Z,5.83
2018-08-19T02:00:31.977Z,6.87
2018-08-19T02:03:06.507Z,6.30
2018-08-19T02:05:36.288Z,6.67
2018-08-19T02:08:07.449Z,5.83
2018-08-19T02:10:37.397Z,7.63
2018-08-19T02:13:07.199Z,6.30
2018-08-19T02:15:36.903Z,8.70
2018-08-19T02:18:08.179Z,9.20
2018-08-19T02:20:42.783Z,5.83
2018-08-19T02:23:13.725Z,13.60
2018-08-19T02:25:47.273Z,6.10
2018-08-19T02:28:22.693Z,5.93
2018-08-19T02:30:57.332Z,5.97
2018-08-19T02:33:27.247Z,6.53
2018-08-19T02:36:00.996Z,6.60
2018-08-19T02:38:30.895Z,6.50
2018-08-19T02:41:00.471Z,6.33
2018-08-19T02:43:30.227Z,8.53
2018-08-19T02:45:59.923Z,6.90
2018-08-19T02:48:43.152Z,7.47
2018-08-19T02:51:15.010Z,13.63
2018-08-19T02:53:46.084Z,5.40
2018-08-19T02:56:16.764Z,5.20
2018-08-19T02:58:48.021Z,6.40
2018-08-19T03:01:18.995Z,5.27
2018-08-19T03:03:48.798Z,6.97
2018-08-19T03:06:18.455Z,5.90
2018-08-19T03:09:00.033Z,5.60
2018-08-19T03:11:29.942Z,8.87
2018-08-19T03:13:59.625Z,6.20
2018-08-19T03:16:29.408Z,4.83
2018-08-19T03:19:00.298Z,5.80
2018-08-19T03:21:29.990Z,5.87
2018-08-19T03:23:59.726Z,4.53
2018-08-19T03:26:31.542Z,6.33
2018-08-19T03:29:07.373Z,9.37
2018-08-19T03:31:37.263Z,6.53
2018-08-19T03:34:07.069Z,8.20
2018-08-19T03:36:37.078Z,5.90
2018-08-19T03:39:17.495Z,5.80
2018-08-19T03:41:47.561Z,4.77
2018-08-19T03:44:18.302Z,7.97
2018-08-19T03:46:48.003Z,6.37
2018-08-19T03:49:18.844Z,13.30
2018-08-19T03:51:48.618Z,5.13
2018-08-19T03:54:18.282Z,8.80
2018-08-19T03:56:47.901Z,6.37
2018-08-19T03:59:17.593Z,11.70
2018-08-19T04:01:47.381Z,6.30
2018-08-19T04:04:18.311Z,5.93
2018-08-19T04:06:48.001Z,7.10
2018-08-19T04:09:17.688Z,7.60
2018-08-19T04:11:56.961Z,5.60
2018-08-19T04:14:29.924Z,5.60
2018-08-19T04:17:01.161Z,11.30
2018-08-19T04:19:31.926Z,6.47
2018-08-19T04:22:04.080Z,6.20
2018-08-19T04:24:34.530Z,5.10
2018-08-19T04:27:09.005Z,9.80
2018-08-19T04:29:40.396Z,17.50
2018-08-19T04:32:18.604Z,6.20
2018-08-19T04:34:48.413Z,8.60
2018-08-19T04:37:18.010Z,15.17
2018-08-19T04:39:48.867Z,6.00
2018-08-19T04:42:18.676Z,6.47
2018-08-19T04:44:48.322Z,14.23
2018-08-19T04:47:30.457Z,17.67
2018-08-19T04:50:00.663Z,7.13
2018-08-19T04:52:32.984Z,7.07
2018-08-19T04:55:02.879Z,8.03
2018-08-19T04:57:32.674Z,13.70
2018-08-19T05:00:02.368Z,7.43
2018-08-19T05:02:32.023Z,13.50
2018-08-19T05:05:01.678Z,7.17
2018-08-19T05:07:31.564Z,10.63
2018-08-19T05:10:01.435Z,6.10
2018-08-19T05:12:31.229Z,12.30
2018-08-19T05:15:01.013Z,6.90
2018-08-19T05:17:30.949Z,7.77
2018-08-19T05:20:12.255Z,7.03
2018-08-19T05:22:43.536Z,10.40
2018-08-19T05:25:13.434Z,8.87
2018-08-19T05:27:44.520Z,10.50
2018-08-19T05:30:15.130Z,7.23
2018-08-19T05:32:49.883Z,9.30
2018-08-19T05:35:19.745Z,7.70
2018-08-19T05:37:49.443Z,9.97
2018-08-19T05:40:19.997Z,9.60
2018-08-19T05:42:49.820Z,9.73
2018-08-19T05:45:19.832Z,12.03
2018-08-19T05:48:00.334Z,6.77
2018-08-19T05:50:30.929Z,14.33
2018-08-19T05:53:00.725Z,9.53
2018-08-19T05:55:30.436Z,10.07
2018-08-19T05:58:00.157Z,10.07
2018-08-19T06:00:30.601Z,11.60
2018-08-19T06:03:02.259Z,11.33
2018-08-19T06:05:32.087Z,9.23
2018-08-19T06:08:07.124Z,18.03
2018-08-19T06:10:37.636Z,14.73
2018-08-19T06:13:08.263Z,11.03
2018-08-19T06:15:38.290Z,9.00
2018-08-19T06:18:08.244Z,8.87
2018-08-19T06:20:38.425Z,8.87
2018-08-19T06:23:08.084Z,12.97
2018-08-19T06:25:37.953Z,10.67
2018-08-19T06:28:07.750Z,16.40
2018-08-19T06:30:37.520Z,10.93
2018-08-19T06:33:07.400Z,11.13
2018-08-19T06:35:37.247Z,11.63
2018-08-19T06:38:07.065Z,8.50
2018-08-19T06:40:36.803Z,9.60
2018-08-19T06:43:06.630Z,10.53
2018-08-19T06:45:36.454Z,15.63
2018-08-19T06:48:06.478Z,8.57
2018-08-19T06:50:36.793Z,10.43
2018-08-19T06:53:06.533Z,8.10
2018-08-19T06:55:36.271Z,5.47
2018-08-19T06:58:06.041Z,10.00
2018-08-19T07:00:35.993Z,7.87
2018-08-19T07:03:06.861Z,11.60
2018-08-19T07:05:36.679Z,7.73
2018-08-19T07:08:06.437Z,11.30
2018-08-19T07:10:37.903Z,7.87
2018-08-19T07:13:11.790Z,6.87
2018-08-19T07:15:42.810Z,10.97
2018-08-19T07:18:16.709Z,7.70
2018-08-19T07:20:46.912Z,16.77
2018-08-19T07:23:16.554Z,6.60
2018-08-19T07:25:46.972Z,7.60
2018-08-19T07:28:18.080Z,6.73
2018-08-19T07:30:48.717Z,6.83
2018-08-19T07:33:18.319Z,12.87
2018-08-19T07:35:48.028Z,6.57
2018-08-19T07:38:17.815Z,6.23
2018-08-19T07:40:47.486Z,7.40
2018-08-19T07:43:17.203Z,22.27
2018-08-19T07:45:46.890Z,5.23
2018-08-19T07:48:16.579Z,6.70
2018-08-19T07:50:46.234Z,5.70
2018-08-19T07:53:15.969Z,6.17
2018-08-19T07:55:45.627Z,7.10
2018-08-19T07:58:18.940Z,4.97
2018-08-19T08:00:49.797Z,3.97
2018-08-19T08:03:19.274Z,11.10
2018-08-19T08:05:49.121Z,7.80
2018-08-19T08:08:18.845Z,5.03
2018-08-19T08:10:48.483Z,3.93
2018-08-19T08:13:18.391Z,3.30
2018-08-19T08:15:55.895Z,3.63
2018-08-19T08:18:26.478Z,1.83
2018-08-19T08:21:15.586Z,6.70
2018-08-19T08:23:45.831Z,2.43
2018-08-19T08:26:16.214Z,2.50
2018-08-19T08:28:53.054Z,3.80
2018-08-19T08:31:23.494Z,2.37
2018-08-19T08:33:54.599Z,3.90
2018-08-19T08:36:25.011Z,11.40
2018-08-19T08:38:55.371Z,3.57
2018-08-19T08:41:25.027Z,6.50
2018-08-19T08:43:54.665Z,2.23
2018-08-19T08:46:24.396Z,1.63
2018-08-19T08:48:54.036Z,5.20
2018-08-19T08:51:23.783Z,19.03
2018-08-19T08:53:53.637Z,2.90
2018-08-19T08:56:23.593Z,2.83
2018-08-19T08:58:53.415Z,4.50
2018-08-19T09:01:23.109Z,1.90
2018-08-19T09:03:53.009Z,3.50
2018-08-19T09:06:28.945Z,19.33
2018-08-19T09:08:59.104Z,10.00
2018-08-19T09:11:29.035Z,1.70
2018-08-19T09:13:58.852Z,3.00
2018-08-19T09:16:28.748Z,2.43
2018-08-19T09:18:58.502Z,2.67
2018-08-19T09:21:28.382Z,3.00
2018-08-19T09:23:58.209Z,2.80
2018-08-19T09:26:27.913Z,3.30
2018-08-19T09:28:57.617Z,4.50
2018-08-19T09:31:27.421Z,2.67
2018-08-19T09:33:57.275Z,5.13
2018-08-19T09:36:27.159Z,4.93
2018-08-19T09:38:56.873Z,8.80
2018-08-19T09:41:26.687Z,3.30
2018-08-19T09:43:56.440Z,1.60
2018-08-19T09:46:26.149Z,2.10
2018-08-19T09:48:55.784Z,3.00
2018-08-19T09:51:25.668Z,3.47
2018-08-19T09:53:55.420Z,1.70
2018-08-19T09:56:29.264Z,16.23
2018-08-19T09:59:04.925Z,5.20
2018-08-19T10:01:39.881Z,2.47
2018-08-19T10:04:14.493Z,7.23
2018-08-19T10:06:44.221Z,2.70
2018-08-19T10:09:14.286Z,2.57
2018-08-19T10:11:44.040Z,3.03
2018-08-19T10:14:13.918Z,5.33
2018-08-19T10:16:46.689Z,5.23
2018-08-19T10:19:17.364Z,6.10
2018-08-19T10:21:47.462Z,2.63
2018-08-19T10:24:24.641Z,2.30
2018-08-19T10:26:54.317Z,4.83
2018-08-19T10:29:25.243Z,3.33
2018-08-19T10:31:59.928Z,3.53
2018-08-19T10:34:34.049Z,2.20
2018-08-19T10:37:34.404Z,9.30
2018-08-19T10:40:04.006Z,5.50
2018-08-19T10:42:33.821Z,2.30
2018-08-19T10:45:09.707Z,3.43
2018-08-19T10:47:39.543Z,2.43
2018-08-19T10:50:09.625Z,3.03
2018-08-19T10:52:43.059Z,2.17
2018-08-19T10:55:14.007Z,3.53
2018-08-19T10:57:44.431Z,4.57
2018-08-19T11:00:17.945Z,9.30
2018-08-19T11:02:47.617Z,2.03
2018-08-19T11:05:17.404Z,20.40
2018-08-19T11:07:48.341Z,5.70
2018-08-19T11:10:23.848Z,2.90
2018-08-19T11:12:56.033Z,3.70
2018-08-19T11:15:54.057Z,2.10
2018-08-19T11:18:41.506Z,20.43
2018-08-19T11:21:14.548Z,8.43
2018-08-19T11:23:46.119Z,4.07
2018-08-19T11:26:15.952Z,3.37
2018-08-19T11:28:48.896Z,2.70
2018-08-19T11:31:25.393Z,6.00
2018-08-19T11:33:57.569Z,1.83
2018-08-19T11:36:33.728Z,1.80
2018-08-19T11:39:03.662Z,10.53
2018-08-19T11:41:34.883Z,2.00
2018-08-19T11:44:16.181Z,3.47
2018-08-19T11:46:46.287Z,2.03
2018-08-19T11:49:17.524Z,4.60
2018-08-19T11:51:56.716Z,2.27
2018-08-19T11:54:27.529Z,5.63
2018-08-19T11:57:08.348Z,7.37
2018-08-19T11:59:46.569Z,2.90
2018-08-19T12:02:19.824Z,7.80
2018-08-19T12:04:50.608Z,3.27
2018-08-19T12:07:20.835Z,1.90
2018-08-19T12:09:58.361Z,12.47
2018-08-19T12:12:43.834Z,3.70
2018-08-19T12:15:13.773Z,25.53
2018-08-19T12:17:43.541Z,5.17
2018-08-19T12:20:13.508Z,3.60
2018-08-19T12:22:44.329Z,2.77
2018-08-19T12:25:14.502Z,6.10
2018-08-19T12:27:44.077Z,5.07
2018-08-19T12:30:16.178Z,2.50
2018-08-19T12:32:45.936Z,2.30
2018-08-19T12:35:15.951Z,2.07
2018-08-19T12:37:45.637Z,2.27
2018-08-19T12:40:15.284Z,2.43
2018-08-19T12:42:49.929Z,3.47
2018-08-19T12:45:20.078Z,2.00
2018-08-19T12:47:49.680Z,2.23
2018-08-19T12:50:19.527Z,2.93
2018-08-19T12:52:50.641Z,5.90
2018-08-19T12:55:21.571Z,1.90
2018-08-19T12:57:56.392Z,6.93
2018-08-19T13:00:26.956Z,5.13
2018-08-19T13:02:56.949Z,6.23
2018-08-19T13:05:27.523Z,7.33
2018-08-19T13:07:57.355Z,3.43
2018-08-19T13:10:34.889Z,3.53
2018-08-19T13:13:04.717Z,12.30
2018-08-19T13:15:35.047Z,2.33
2018-08-19T13:18:04.622Z,4.13
2018-08-19T13:20:34.386Z,4.60
2018-08-19T13:23:05.101Z,3.23
2018-08-19T13:25:35.763Z,6.23
2018-08-19T13:28:05.591Z,3.97
2018-08-19T13:30:35.311Z,26.87
2018-08-19T13:33:05.055Z,8.33
2018-08-19T13:35:34.882Z,10.20
2018-08-19T13:38:04.701Z,8.73
2018-08-19T13:40:34.520Z,8.43
2018-08-19T13:43:04.408Z,14.90
2018-08-19T13:45:34.153Z,3.30
2018-08-19T13:48:04.131Z,3.70
2018-08-19T13:50:33.876Z,3.23
2018-08-19T13:53:03.607Z,3.40
2018-08-19T13:55:33.428Z,3.00
2018-08-19T13:58:03.321Z,3.70
2018-08-19T14:00:34.005Z,7.87
2018-08-19T14:03:03.812Z,3.40
2018-08-19T14:05:34.426Z,3.40
2018-08-19T14:08:04.196Z,4.17
2018-08-19T14:10:33.870Z,5.50
2018-08-19T14:13:03.676Z,20.20
2018-08-19T14:15:33.470Z,4.40
2018-08-19T14:18:03.196Z,6.40
2018-08-19T14:20:32.819Z,4.60
2018-08-19T14:23:02.402Z,2.57
2018-08-19T14:25:32.306Z,6.40
2018-08-19T14:28:02.345Z,4.73
2018-08-19T14:30:32.263Z,7.73
2018-08-19T14:33:01.985Z,4.83
2018-08-19T14:35:31.760Z,3.37
2018-08-19T14:38:01.588Z,17.37
2018-08-19T14:40:31.483Z,7.60
2018-08-19T14:43:01.272Z,6.60
2018-08-19T14:45:31.117Z,4.57
2018-08-19T14:48:00.908Z,5.50
2018-08-19T14:50:30.680Z,3.53
2018-08-19T14:53:00.423Z,3.37
2018-08-19T14:55:30.289Z,3.50
2018-08-19T14:58:00.107Z,3.20
2018-08-19T15:00:29.964Z,3.83
2018-08-19T15:02:59.753Z,2.60
2018-08-19T15:05:29.491Z,3.20
2018-08-19T15:08:07.005Z,3.83
2018-08-19T15:10:37.088Z,16.60
2018-08-19T15:13:06.949Z,13.07
2018-08-19T15:15:36.865Z,4.40
2018-08-19T15:18:06.863Z,5.73
2018-08-19T15:20:37.815Z,5.23
2018-08-19T15:23:18.839Z,5.10
2018-08-19T15:25:49.660Z,17.70
2018-08-19T15:28:19.961Z,21.07
2018-08-19T15:30:49.801Z,15.30
2018-08-19T15:33:19.725Z,4.70
2018-08-19T15:35:50.361Z,3.50
2018-08-19T15:38:20.284Z,4.23
2018-08-19T15:40:50.672Z,8.10
2018-08-19T15:43:20.340Z,14.00
2018-08-19T15:45:51.081Z,7.73
2018-08-19T15:48:20.893Z,4.50
2018-08-19T15:50:54.037Z,4.53
2018-08-19T15:53:23.783Z,8.30
2018-08-19T15:55:54.809Z,12.83
2018-08-19T15:58:24.890Z,8.50
2018-08-19T16:00:54.703Z,4.70
2018-08-19T16:03:24.536Z,14.27
2018-08-19T16:05:55.620Z,10.07
2018-08-19T16:08:25.545Z,6.27
2018-08-19T16:10:55.490Z,18.07
2018-08-19T16:13:25.348Z,6.00
2018-08-19T16:15:55.194Z,8.50
2018-08-19T16:18:25.026Z,7.43
2018-08-19T16:20:59.832Z,13.83
2018-08-19T16:23:29.838Z,11.97
2018-08-19T16:26:00.745Z,8.03
2018-08-19T16:28:30.730Z,14.23
2018-08-19T16:31:00.658Z,24.60
2018-08-19T16:33:30.581Z,6.37
2018-08-19T16:36:00.717Z,5.50
2018-08-19T16:38:30.589Z,6.47
2018-08-19T16:41:00.803Z,9.60
2018-08-19T16:43:30.753Z,10.60
2018-08-19T16:46:00.560Z,5.90
2018-08-19T16:48:30.434Z,5.20
2018-08-19T16:51:00.349Z,5.17
2018-08-19T16:53:30.128Z,5.43
2018-08-19T16:55:59.992Z,4.53
2018-08-19T16:58:29.767Z,5.17
2018-08-19T17:00:59.644Z,5.00
2018-08-19T17:03:34.889Z,5.90
2018-08-19T17:06:07.626Z,6.03
2018-08-19T17:08:37.512Z,5.80
2018-08-19T17:11:07.658Z,5.67
2018-08-19T17:13:37.479Z,5.30
2018-08-19T17:16:07.277Z,5.73
2018-08-19T17:18:36.974Z,6.83
2018-08-19T17:21:06.775Z,4.50
2018-08-19T17:23:36.688Z,8.17
2018-08-19T17:26:13.464Z,5.23
2018-08-19T17:28:43.449Z,5.97
2018-08-19T17:31:13.229Z,6.73
2018-08-19T17:33:42.993Z,7.97
2018-08-19T17:36:17.142Z,4.70
2018-08-19T17:38:47.010Z,25.53
2018-08-19T17:41:16.588Z,9.03
2018-08-19T17:43:46.267Z,11.47
2018-08-19T17:46:17.500Z,21.40
2018-08-19T17:48:47.265Z,186.13
2018-08-19T17:51:35.707Z,138.57
2018-08-19T17:54:15.206Z,562.70
2018-08-19T17:56:44.843Z,241.83
2018-08-19T17:59:14.685Z,296.43
2018-08-19T18:01:45.108Z,36.60
2018-08-19T18:04:14.877Z,11.87
2018-08-19T18:06:44.602Z,22.53
2018-08-19T18:09:16.933Z,16.23
2018-08-19T18:11:53.428Z,9.80
2018-08-19T18:14:24.290Z,10.03
2018-08-19T18:16:54.057Z,5.90
2018-08-19T18:19:23.736Z,10.50
2018-08-19T18:21:53.565Z,7.13
2018-08-19T18:24:24.074Z,5.27
2018-08-19T18:26:53.810Z,4.90
2018-08-19T18:29:23.797Z,4.90
2018-08-19T18:31:53.646Z,15.63
2018-08-19T18:34:23.425Z,26.83
2018-08-19T18:36:53.172Z,11.03
2018-08-19T18:39:22.923Z,4.30
2018-08-19T18:41:52.767Z,4.53
2018-08-19T18:44:22.585Z,5.20
2018-08-19T18:46:52.344Z,4.90
2018-08-19T18:49:24.244Z,4.70
2018-08-19T18:51:55.339Z,4.63
2018-08-19T18:54:30.190Z,10.30
2018-08-19T18:57:06.056Z,10.83
2018-08-19T18:59:35.871Z,6.03
2018-08-19T19:02:05.699Z,4.63
2018-08-19T19:04:36.891Z,15.57
2018-08-19T19:07:06.755Z,4.90
2018-08-19T19:09:41.659Z,3.93
2018-08-19T19:12:11.477Z,4.37
2018-08-19T19:14:42.127Z,7.33
2018-08-19T19:17:11.948Z,7.60
2018-08-19T19:19:46.689Z,4.10
2018-08-19T19:22:16.564Z,4.60
2018-08-19T19:24:46.983Z,3.40
2018-08-19T19:27:16.763Z,8.20
2018-08-19T19:29:50.862Z,4.00
2018-08-19T19:32:27.172Z,7.67
2018-08-19T19:35:00.902Z,5.13
2018-08-19T19:37:30.442Z,5.37
2018-08-19T19:40:05.987Z,9.73
2018-08-19T19:42:35.748Z,4.37
2018-08-19T19:45:07.570Z,8.57
2018-08-19T19:47:37.308Z,6.43
2018-08-19T19:50:08.701Z,9.70
2018-08-19T19:52:41.479Z,4.63
2018-08-19T19:55:12.417Z,5.03
2018-08-19T19:57:42.048Z,5.27
2018-08-19T20:00:11.805Z,4.10
2018-08-19T20:02:41.541Z,4.30
2018-08-19T20:05:16.348Z,4.60
2018-08-19T20:07:46.057Z,4.93
2018-08-19T20:10:19.864Z,3.20
2018-08-19T20:12:49.528Z,10.97
2018-08-19T20:15:19.394Z,6.80
2018-08-19T20:17:49.076Z,10.03
2018-08-19T20:20:18.882Z,5.50
2018-08-19T20:22:48.637Z,6.43
2018-08-19T20:25:18.402Z,7.23
2018-08-19T20:27:49.541Z,8.63
2018-08-19T20:30:19.299Z,8.43
2018-08-19T20:32:49.162Z,9.03
2018-08-19T20:35:19.532Z,13.77
2018-08-19T20:37:49.324Z,5.70
2018-08-19T20:40:19.164Z,5.43
2018-08-19T20:42:48.858Z,6.43
2018-08-19T20:45:18.565Z,5.90
2018-08-19T20:47:48.349Z,12.10
2018-08-19T20:50:18.157Z,9.00
2018-08-19T20:52:49.447Z,5.80
2018-08-19T20:55:19.221Z,5.13
2018-08-19T20:57:48.916Z,6.50
2018-08-19T21:00:18.601Z,6.03
2018-08-19T21:02:48.313Z,5.83
2018-08-19T21:05:18.092Z,5.07
2018-08-19T21:07:47.810Z,4.97
2018-08-19T21:10:17.585Z,4.83
2018-08-19T21:12:47.414Z,9.70
2018-08-19T21:15:22.591Z,11.27
2018-08-19T21:17:52.456Z,10.13
2018-08-19T21:20:22.124Z,5.03
2018-08-19T21:22:52.148Z,13.83
2018-08-19T21:25:22.276Z,5.07
2018-08-19T21:27:51.884Z,5.80
2018-08-19T21:30:21.597Z,5.17
2018-08-19T21:32:51.300Z,10.30
2018-08-19T21:35:21.003Z,4.10
2018-08-19T21:37:50.726Z,9.27
2018-08-19T21:40:27.238Z,5.37
2018-08-19T21:42:58.532Z,5.33
2018-08-19T21:45:29.196Z,4.87
2018-08-19T21:47:59.040Z,5.60
2018-08-19T21:50:28.828Z,4.17
2018-08-19T21:53:01.960Z,5.00
2018-08-19T21:55:35.229Z,4.90
2018-08-19T21:58:05.435Z,4.00
2018-08-19T22:00:39.090Z,9.30
2018-08-19T22:03:18.450Z,3.90
2018-08-19T22:07:13.164Z,4.10
2018-08-19T22:09:42.873Z,3.97
2018-08-19T22:12:12.559Z,6.43
2018-08-19T22:14:42.351Z,3.20
2018-08-19T22:17:12.270Z,3.70
2018-08-19T22:19:42.077Z,5.70
2018-08-19T22:22:11.943Z,3.90
2018-08-19T22:24:41.658Z,6.40
2018-08-19T22:27:17.516Z,11.10
2018-08-19T22:29:47.349Z,4.53
2018-08-19T22:32:17.230Z,5.30
2018-08-19T22:34:47.395Z,5.27
2018-08-19T22:37:17.248Z,5.20
2018-08-19T22:39:47.688Z,14.23
2018-08-19T22:42:17.420Z,3.53
2018-08-19T22:44:48.297Z,6.57
2018-08-19T22:47:18.069Z,4.00
2018-08-19T22:49:47.841Z,6.30
2018-08-19T22:52:23.753Z,7.10
2018-08-19T22:54:57.520Z,4.30
2018-08-19T22:57:27.940Z,4.30
2018-08-19T22:59:57.591Z,3.90
2018-08-19T23:02:27.519Z,3.70
2018-08-19T23:04:57.876Z,4.10
2018-08-19T23:07:27.773Z,6.93
2018-08-19T23:09:57.503Z,4.43
2018-08-19T23:12:27.201Z,4.00
2018-08-19T23:15:07.524Z,3.40
2018-08-19T23:17:37.326Z,3.97
2018-08-19T23:20:07.240Z,3.50
2018-08-19T23:22:36.936Z,4.97
2018-08-19T23:25:07.617Z,4.17
2018-08-19T23:27:37.324Z,4.63
2018-08-19T23:30:07.075Z,7.80
2018-08-19T23:32:36.831Z,7.10
2018-08-19T23:35:06.544Z,4.40
2018-08-19T23:37:36.262Z,6.33
2018-08-19T23:40:06.029Z,4.03
2018-08-19T23:42:35.870Z,4.77
2018-08-19T23:45:05.780Z,3.70
2018-08-19T23:47:35.521Z,4.03
2018-08-19T23:50:05.588Z,3.90
2018-08-19T23:52:35.245Z,3.80
2018-08-19T23:55:05.387Z,3.83
2018-08-19T23:57:35.048Z,6.83
